sensor_id;sensor_type;location;lat;lon;timestamp;P1;durP1;ratioP1;P2;durP2;ratioP2
51020;SDS011;38907;45.562;8.856;2023-04-25T00:03:41;3.00;;;2.40;;
51020;SDS011;38907;45.562;8.856;2023-04-25T00:08:44;7.30;;;2.80;;
51020;SDS011;38907;45.562;8.856;2023-04-25T00:13:46;3.33;;;2.15;;
51020;SDS011;38907;45.562;8.856;2023-04-25T00:18:49;3.95;;;2.50;;
51020;SDS011;38907;45.562;8.856;2023-04-25T00:23:55;3.75;;;2.60;;
51020;SDS011;38907;45.562;8.856;2023-04-25T00:28:57;3.70;;;1.80;;
51020;SDS011;38907;45.562;8.856;2023-04-25T00:33:59;2.80;;;2.42;;
51020;SDS011;38907;45.562;8.856;2023-04-25T00:39:02;3.40;;;2.58;;
51020;SDS011;38907;45.562;8.856;2023-04-25T00:44:05;2.80;;;2.20;;
51020;SDS011;38907;45.562;8.856;2023-04-25T00:49:08;2.42;;;1.75;;
51020;SDS011;38907;45.562;8.856;2023-04-25T00:54:16;6.40;;;2.13;;
51020;SDS011;38907;45.562;8.856;2023-04-25T00:59:19;2.15;;;1.80;;
51020;SDS011;38907;45.562;8.856;2023-04-25T01:04:21;2.65;;;1.83;;
51020;SDS011;38907;45.562;8.856;2023-04-25T01:09:24;3.00;;;2.22;;
51020;SDS011;38907;45.562;8.856;2023-04-25T01:14:27;4.53;;;1.85;;
51020;SDS011;38907;45.562;8.856;2023-04-25T01:19:29;2.30;;;1.97;;
51020;SDS011;38907;45.562;8.856;2023-04-25T01:24:33;2.22;;;1.50;;
51020;SDS011;38907;45.562;8.856;2023-04-25T01:29:36;2.88;;;1.92;;
51020;SDS011;38907;45.562;8.856;2023-04-25T01:34:38;1.50;;;1.40;;
51020;SDS011;38907;45.562;8.856;2023-04-25T01:39:41;1.70;;;1.50;;
51020;SDS011;38907;45.562;8.856;2023-04-25T01:44:43;2.05;;;1.63;;
51020;SDS011;38907;45.562;8.856;2023-04-25T01:49:45;3.13;;;1.60;;
51020;SDS011;38907;45.562;8.856;2023-04-25T01:54:48;1.85;;;1.63;;
51020;SDS011;38907;45.562;8.856;2023-04-25T01:59:52;6.13;;;1.95;;
51020;SDS011;38907;45.562;8.856;2023-04-25T02:04:59;4.20;;;1.85;;
51020;SDS011;38907;45.562;8.856;2023-04-25T02:10:02;2.00;;;1.58;;
51020;SDS011;38907;45.562;8.856;2023-04-25T02:15:05;1.67;;;1.50;;
51020;SDS011;38907;45.562;8.856;2023-04-25T02:20:08;2.20;;;1.17;;
51020;SDS011;38907;45.562;8.856;2023-04-25T02:25:12;3.05;;;1.60;;
51020;SDS011;38907;45.562;8.856;2023-04-25T02:30:15;2.40;;;1.67;;
51020;SDS011;38907;45.562;8.856;2023-04-25T02:35:18;1.85;;;1.52;;
51020;SDS011;38907;45.562;8.856;2023-04-25T02:40:21;3.17;;;2.00;;
51020;SDS011;38907;45.562;8.856;2023-04-25T02:50:24;2.05;;;1.80;;
51020;SDS011;38907;45.562;8.856;2023-04-25T02:55:28;1.45;;;1.35;;
51020;SDS011;38907;45.562;8.856;2023-04-25T03:00:30;2.75;;;1.80;;
51020;SDS011;38907;45.562;8.856;2023-04-25T03:05:32;2.55;;;1.48;;
51020;SDS011;38907;45.562;8.856;2023-04-25T03:10:35;2.08;;;1.65;;
51020;SDS011;38907;45.562;8.856;2023-04-25T03:15:37;3.03;;;2.10;;
51020;SDS011;38907;45.562;8.856;2023-04-25T03:20:39;2.47;;;2.03;;
51020;SDS011;38907;45.562;8.856;2023-04-25T03:25:44;3.00;;;2.13;;
51020;SDS011;38907;45.562;8.856;2023-04-25T03:30:46;2.92;;;2.63;;
51020;SDS011;38907;45.562;8.856;2023-04-25T03:35:47;3.65;;;2.58;;
51020;SDS011;38907;45.562;8.856;2023-04-25T03:40:51;3.00;;;2.20;;
51020;SDS011;38907;45.562;8.856;2023-04-25T03:50:55;3.75;;;2.10;;
51020;SDS011;38907;45.562;8.856;2023-04-25T03:55:58;3.22;;;2.42;;
51020;SDS011;38907;45.562;8.856;2023-04-25T04:01:00;2.80;;;2.33;;
51020;SDS011;38907;45.562;8.856;2023-04-25T04:06:03;3.88;;;2.45;;
51020;SDS011;38907;45.562;8.856;2023-04-25T04:11:07;3.80;;;2.47;;
51020;SDS011;38907;45.562;8.856;2023-04-25T04:16:08;6.35;;;2.30;;
51020;SDS011;38907;45.562;8.856;2023-04-25T04:21:11;3.55;;;3.00;;
51020;SDS011;38907;45.562;8.856;2023-04-25T04:26:14;3.50;;;2.33;;
51020;SDS011;38907;45.562;8.856;2023-04-25T04:36:19;2.30;;;2.00;;
51020;SDS011;38907;45.562;8.856;2023-04-25T04:41:23;3.63;;;2.43;;
51020;SDS011;38907;45.562;8.856;2023-04-25T04:46:25;2.95;;;2.10;;
51020;SDS011;38907;45.562;8.856;2023-04-25T04:51:28;3.05;;;2.53;;
51020;SDS011;38907;45.562;8.856;2023-04-25T04:56:31;3.13;;;2.30;;
51020;SDS011;38907;45.562;8.856;2023-04-25T05:01:33;2.80;;;2.10;;
51020;SDS011;38907;45.562;8.856;2023-04-25T05:06:36;3.67;;;2.77;;
51020;SDS011;38907;45.562;8.856;2023-04-25T05:11:39;3.55;;;2.55;;
51020;SDS011;38907;45.562;8.856;2023-04-25T05:16:41;4.18;;;3.10;;
51020;SDS011;38907;45.562;8.856;2023-04-25T05:21:43;5.07;;;3.40;;
51020;SDS011;38907;45.562;8.856;2023-04-25T05:26:47;5.03;;;3.33;;
51020;SDS011;38907;45.562;8.856;2023-04-25T05:31:48;5.78;;;3.60;;
51020;SDS011;38907;45.562;8.856;2023-04-25T05:36:50;5.35;;;3.47;;
51020;SDS011;38907;45.562;8.856;2023-04-25T05:41:54;5.18;;;3.90;;
51020;SDS011;38907;45.562;8.856;2023-04-25T05:46:55;6.18;;;4.18;;
51020;SDS011;38907;45.562;8.856;2023-04-25T05:51:57;5.00;;;3.75;;
51020;SDS011;38907;45.562;8.856;2023-04-25T05:57:01;7.28;;;4.07;;
51020;SDS011;38907;45.562;8.856;2023-04-25T06:02:03;6.38;;;3.50;;
51020;SDS011;38907;45.562;8.856;2023-04-25T06:07:05;8.25;;;3.00;;
51020;SDS011;38907;45.562;8.856;2023-04-25T06:12:08;4.55;;;2.90;;
51020;SDS011;38907;45.562;8.856;2023-04-25T06:22:11;4.82;;;3.33;;
51020;SDS011;38907;45.562;8.856;2023-04-25T06:27:14;3.38;;;2.60;;
51020;SDS011;38907;45.562;8.856;2023-04-25T06:32:16;2.80;;;2.15;;
51020;SDS011;38907;45.562;8.856;2023-04-25T06:37:19;3.35;;;2.00;;
51020;SDS011;38907;45.562;8.856;2023-04-25T06:42:22;2.65;;;1.75;;
51020;SDS011;38907;45.562;8.856;2023-04-25T06:52:25;3.53;;;1.50;;
51020;SDS011;38907;45.562;8.856;2023-04-25T06:57:29;3.30;;;1.45;;
51020;SDS011;38907;45.562;8.856;2023-04-25T07:07:32;4.43;;;1.98;;
51020;SDS011;38907;45.562;8.856;2023-04-25T07:12:35;2.47;;;1.60;;
51020;SDS011;38907;45.562;8.856;2023-04-25T07:22:39;2.13;;;1.35;;
51020;SDS011;38907;45.562;8.856;2023-04-25T07:27:42;2.20;;;1.27;;
51020;SDS011;38907;45.562;8.856;2023-04-25T07:37:46;2.28;;;1.52;;
51020;SDS011;38907;45.562;8.856;2023-04-25T07:42:49;2.40;;;1.40;;
51020;SDS011;38907;45.562;8.856;2023-04-25T07:52:53;2.95;;;1.23;;
51020;SDS011;38907;45.562;8.856;2023-04-25T07:57:56;2.90;;;1.10;;
51020;SDS011;38907;45.562;8.856;2023-04-25T08:08:00;4.60;;;1.95;;
51020;SDS011;38907;45.562;8.856;2023-04-25T08:13:03;5.53;;;1.75;;
51020;SDS011;38907;45.562;8.856;2023-04-25T08:18:05;2.53;;;1.25;;
51020;SDS011;38907;45.562;8.856;2023-04-25T08:23:08;3.03;;;1.80;;
51020;SDS011;38907;45.562;8.856;2023-04-25T08:28:12;3.70;;;2.00;;
51020;SDS011;38907;45.562;8.856;2023-04-25T08:33:15;5.97;;;1.98;;
51020;SDS011;38907;45.562;8.856;2023-04-25T08:38:17;3.15;;;2.00;;
51020;SDS011;38907;45.562;8.856;2023-04-25T08:43:21;4.00;;;1.70;;
51020;SDS011;38907;45.562;8.856;2023-04-25T08:48:26;5.55;;;2.08;;
51020;SDS011;38907;45.562;8.856;2023-04-25T08:53:30;3.78;;;2.20;;
51020;SDS011;38907;45.562;8.856;2023-04-25T08:58:35;5.05;;;2.45;;
51020;SDS011;38907;45.562;8.856;2023-04-25T09:03:38;3.40;;;2.50;;
51020;SDS011;38907;45.562;8.856;2023-04-25T09:08:40;2.80;;;2.30;;
51020;SDS011;38907;45.562;8.856;2023-04-25T09:13:43;7.13;;;2.88;;
51020;SDS011;38907;45.562;8.856;2023-04-25T09:18:47;5.93;;;4.82;;
51020;SDS011;38907;45.562;8.856;2023-04-25T09:23:49;3.73;;;3.00;;
51020;SDS011;38907;45.562;8.856;2023-04-25T09:28:59;3.72;;;2.47;;
51020;SDS011;38907;45.562;8.856;2023-04-25T09:34:06;7.75;;;3.17;;
51020;SDS011;38907;45.562;8.856;2023-04-25T09:39:12;4.22;;;2.50;;
51020;SDS011;38907;45.562;8.856;2023-04-25T09:44:19;5.38;;;3.17;;
51020;SDS011;38907;45.562;8.856;2023-04-25T09:49:25;7.13;;;2.80;;
51020;SDS011;38907;45.562;8.856;2023-04-25T09:54:28;5.95;;;2.60;;
51020;SDS011;38907;45.562;8.856;2023-04-25T09:59:31;4.40;;;3.10;;
51020;SDS011;38907;45.562;8.856;2023-04-25T10:04:36;3.42;;;2.70;;
51020;SDS011;38907;45.562;8.856;2023-04-25T10:09:39;3.88;;;2.40;;
51020;SDS011;38907;45.562;8.856;2023-04-25T10:14:43;3.97;;;3.00;;
51020;SDS011;38907;45.562;8.856;2023-04-25T10:19:47;5.30;;;2.83;;
51020;SDS011;38907;45.562;8.856;2023-04-25T10:24:49;5.60;;;2.10;;
51020;SDS011;38907;45.562;8.856;2023-04-25T10:35:11;5.38;;;2.15;;
51020;SDS011;38907;45.562;8.856;2023-04-25T10:40:15;3.50;;;2.75;;
51020;SDS011;38907;45.562;8.856;2023-04-25T10:45:25;4.45;;;2.30;;
51020;SDS011;38907;45.562;8.856;2023-04-25T10:50:36;5.10;;;3.60;;
51020;SDS011;38907;45.562;8.856;2023-04-25T10:55:49;5.45;;;2.90;;
51020;SDS011;38907;45.562;8.856;2023-04-25T11:00:53;5.27;;;3.07;;
51020;SDS011;38907;45.562;8.856;2023-04-25T11:05:56;5.80;;;3.03;;
51020;SDS011;38907;45.562;8.856;2023-04-25T11:11:00;5.38;;;3.55;;
51020;SDS011;38907;45.562;8.856;2023-04-25T11:16:04;2.92;;;2.40;;
51020;SDS011;38907;45.562;8.856;2023-04-25T11:21:08;2.90;;;2.40;;
51020;SDS011;38907;45.562;8.856;2023-04-25T11:26:10;3.47;;;2.15;;
51020;SDS011;38907;45.562;8.856;2023-04-25T11:31:13;4.63;;;2.72;;
51020;SDS011;38907;45.562;8.856;2023-04-25T11:36:15;3.85;;;2.60;;
51020;SDS011;38907;45.562;8.856;2023-04-25T11:41:17;3.75;;;2.47;;
51020;SDS011;38907;45.562;8.856;2023-04-25T11:46:22;4.72;;;2.78;;
51020;SDS011;38907;45.562;8.856;2023-04-25T11:51:25;3.63;;;2.42;;
51020;SDS011;38907;45.562;8.856;2023-04-25T11:56:27;2.73;;;2.30;;
51020;SDS011;38907;45.562;8.856;2023-04-25T12:01:33;3.53;;;1.80;;
51020;SDS011;38907;45.562;8.856;2023-04-25T12:06:36;2.80;;;2.47;;
51020;SDS011;38907;45.562;8.856;2023-04-25T12:11:40;5.68;;;1.75;;
51020;SDS011;38907;45.562;8.856;2023-04-25T12:16:45;2.13;;;1.23;;
51020;SDS011;38907;45.562;8.856;2023-04-25T12:21:49;4.50;;;1.38;;
51020;SDS011;38907;45.562;8.856;2023-04-25T12:26:51;2.50;;;1.20;;
51020;SDS011;38907;45.562;8.856;2023-04-25T12:31:56;1.27;;;0.98;;
51020;SDS011;38907;45.562;8.856;2023-04-25T12:36:59;2.15;;;1.35;;
51020;SDS011;38907;45.562;8.856;2023-04-25T12:42:01;5.00;;;1.40;;
51020;SDS011;38907;45.562;8.856;2023-04-25T12:47:05;7.57;;;1.48;;
51020;SDS011;38907;45.562;8.856;2023-04-25T12:52:07;2.38;;;1.38;;
51020;SDS011;38907;45.562;8.856;2023-04-25T12:57:10;2.88;;;1.27;;
51020;SDS011;38907;45.562;8.856;2023-04-25T13:02:13;2.83;;;1.27;;
51020;SDS011;38907;45.562;8.856;2023-04-25T13:07:16;2.38;;;1.10;;
51020;SDS011;38907;45.562;8.856;2023-04-25T13:12:19;2.30;;;0.75;;
51020;SDS011;38907;45.562;8.856;2023-04-25T13:17:22;0.80;;;0.60;;
51020;SDS011;38907;45.562;8.856;2023-04-25T13:22:24;1.40;;;0.50;;
51020;SDS011;38907;45.562;8.856;2023-04-25T13:27:26;0.88;;;0.80;;
51020;SDS011;38907;45.562;8.856;2023-04-25T13:32:30;0.90;;;0.73;;
51020;SDS011;38907;45.562;8.856;2023-04-25T13:37:33;1.40;;;0.77;;
51020;SDS011;38907;45.562;8.856;2023-04-25T13:42:35;1.95;;;0.80;;
51020;SDS011;38907;45.562;8.856;2023-04-25T13:52:41;1.63;;;0.77;;
51020;SDS011;38907;45.562;8.856;2023-04-25T13:57:43;1.77;;;1.00;;
51020;SDS011;38907;45.562;8.856;2023-04-25T14:02:47;1.87;;;0.90;;
51020;SDS011;38907;45.562;8.856;2023-04-25T14:07:49;1.02;;;0.90;;
51020;SDS011;38907;45.562;8.856;2023-04-25T14:12:51;2.93;;;1.13;;
51020;SDS011;38907;45.562;8.856;2023-04-25T14:17:54;2.50;;;1.10;;
51020;SDS011;38907;45.562;8.856;2023-04-25T14:22:56;1.52;;;0.98;;
51020;SDS011;38907;45.562;8.856;2023-04-25T14:27:58;1.90;;;1.00;;
51020;SDS011;38907;45.562;8.856;2023-04-25T14:33:02;2.30;;;1.10;;
51020;SDS011;38907;45.562;8.856;2023-04-25T14:38:05;2.13;;;1.00;;
51020;SDS011;38907;45.562;8.856;2023-04-25T14:43:07;5.47;;;1.30;;
51020;SDS011;38907;45.562;8.856;2023-04-25T14:48:11;2.60;;;0.90;;
51020;SDS011;38907;45.562;8.856;2023-04-25T14:53:13;1.35;;;0.98;;
51020;SDS011;38907;45.562;8.856;2023-04-25T14:58:15;1.77;;;0.80;;
51020;SDS011;38907;45.562;8.856;2023-04-25T15:03:18;1.97;;;0.97;;
51020;SDS011;38907;45.562;8.856;2023-04-25T15:08:21;1.80;;;0.77;;
51020;SDS011;38907;45.562;8.856;2023-04-25T15:13:23;2.00;;;0.83;;
51020;SDS011;38907;45.562;8.856;2023-04-25T15:18:26;2.50;;;0.50;;
51020;SDS011;38907;45.562;8.856;2023-04-25T15:23:28;1.40;;;0.70;;
51020;SDS011;38907;45.562;8.856;2023-04-25T15:28:30;2.10;;;0.50;;
51020;SDS011;38907;45.562;8.856;2023-04-25T15:33:35;1.85;;;0.40;;
51020;SDS011;38907;45.562;8.856;2023-04-25T15:38:37;0.95;;;0.38;;
51020;SDS011;38907;45.562;8.856;2023-04-25T15:43:39;2.17;;;0.27;;
51020;SDS011;38907;45.562;8.856;2023-04-25T15:48:42;0.30;;;0.30;;
51020;SDS011;38907;45.562;8.856;2023-04-25T15:53:44;2.42;;;0.30;;
51020;SDS011;38907;45.562;8.856;2023-04-25T15:58:46;1.20;;;0.30;;
51020;SDS011;38907;45.562;8.856;2023-04-25T16:03:50;0.67;;;0.40;;
51020;SDS011;38907;45.562;8.856;2023-04-25T16:08:52;2.38;;;0.50;;
51020;SDS011;38907;45.562;8.856;2023-04-25T16:13:55;3.78;;;0.50;;
51020;SDS011;38907;45.562;8.856;2023-04-25T16:18:58;1.53;;;0.40;;
51020;SDS011;38907;45.562;8.856;2023-04-25T16:24:00;1.25;;;0.32;;
51020;SDS011;38907;45.562;8.856;2023-04-25T16:29:02;1.30;;;0.83;;
51020;SDS011;38907;45.562;8.856;2023-04-25T16:34:07;0.55;;;0.40;;
51020;SDS011;38907;45.562;8.856;2023-04-25T16:39:08;4.68;;;0.50;;
51020;SDS011;38907;45.562;8.856;2023-04-25T16:44:10;1.93;;;0.80;;
51020;SDS011;38907;45.562;8.856;2023-04-25T16:49:14;0.70;;;0.50;;
51020;SDS011;38907;45.562;8.856;2023-04-25T16:54:15;1.48;;;0.60;;
51020;SDS011;38907;45.562;8.856;2023-04-25T16:59:18;2.92;;;0.95;;
51020;SDS011;38907;45.562;8.856;2023-04-25T17:04:21;3.55;;;1.10;;
51020;SDS011;38907;45.562;8.856;2023-04-25T17:09:23;0.60;;;0.50;;
51020;SDS011;38907;45.562;8.856;2023-04-25T17:14:25;0.60;;;0.40;;
51020;SDS011;38907;45.562;8.856;2023-04-25T17:19:28;0.40;;;0.40;;
51020;SDS011;38907;45.562;8.856;2023-04-25T17:24:31;0.50;;;0.40;;
51020;SDS011;38907;45.562;8.856;2023-04-25T17:29:33;2.28;;;0.55;;
51020;SDS011;38907;45.562;8.856;2023-04-25T17:34:36;1.93;;;0.60;;
51020;SDS011;38907;45.562;8.856;2023-04-25T17:39:39;8.73;;;1.00;;
51020;SDS011;38907;45.562;8.856;2023-04-25T17:44:41;3.43;;;0.90;;
51020;SDS011;38907;45.562;8.856;2023-04-25T17:49:44;1.13;;;0.83;;
51020;SDS011;38907;45.562;8.856;2023-04-25T17:54:46;2.80;;;1.00;;
51020;SDS011;38907;45.562;8.856;2023-04-25T17:59:48;3.83;;;1.33;;
51020;SDS011;38907;45.562;8.856;2023-04-25T18:04:51;3.08;;;1.00;;
51020;SDS011;38907;45.562;8.856;2023-04-25T18:09:54;2.67;;;1.05;;
51020;SDS011;38907;45.562;8.856;2023-04-25T18:14:57;5.03;;;0.98;;
51020;SDS011;38907;45.562;8.856;2023-04-25T18:20:02;1.75;;;1.02;;
51020;SDS011;38907;45.562;8.856;2023-04-25T18:25:07;3.22;;;1.30;;
51020;SDS011;38907;45.562;8.856;2023-04-25T18:30:11;1.05;;;0.95;;
51020;SDS011;38907;45.562;8.856;2023-04-25T18:35:15;2.10;;;1.00;;
51020;SDS011;38907;45.562;8.856;2023-04-25T18:40:17;4.45;;;1.10;;
51020;SDS011;38907;45.562;8.856;2023-04-25T18:45:18;12.32;;;1.35;;
51020;SDS011;38907;45.562;8.856;2023-04-25T18:50:22;1.55;;;1.33;;
51020;SDS011;38907;45.562;8.856;2023-04-25T18:55:25;2.67;;;1.50;;
51020;SDS011;38907;45.562;8.856;2023-04-25T19:00:27;1.77;;;1.30;;
51020;SDS011;38907;45.562;8.856;2023-04-25T19:05:30;2.25;;;1.40;;
51020;SDS011;38907;45.562;8.856;2023-04-25T19:10:32;14.18;;;2.83;;
51020;SDS011;38907;45.562;8.856;2023-04-25T19:15:34;2.15;;;1.50;;
51020;SDS011;38907;45.562;8.856;2023-04-25T19:20:38;4.63;;;1.20;;
51020;SDS011;38907;45.562;8.856;2023-04-25T19:25:40;3.13;;;1.30;;
51020;SDS011;38907;45.562;8.856;2023-04-25T19:30:42;2.67;;;1.45;;
51020;SDS011;38907;45.562;8.856;2023-04-25T19:40:48;1.60;;;1.05;;
51020;SDS011;38907;45.562;8.856;2023-04-25T19:45:50;1.92;;;1.27;;
51020;SDS011;38907;45.562;8.856;2023-04-25T19:50:53;1.90;;;1.33;;
51020;SDS011;38907;45.562;8.856;2023-04-25T20:00:58;3.80;;;1.30;;
51020;SDS011;38907;45.562;8.856;2023-04-25T20:06:01;1.80;;;1.35;;
51020;SDS011;38907;45.562;8.856;2023-04-25T20:16:05;1.38;;;1.27;;
51020;SDS011;38907;45.562;8.856;2023-04-25T20:21:09;1.45;;;1.13;;
51020;SDS011;38907;45.562;8.856;2023-04-25T20:31:13;3.00;;;1.45;;
51020;SDS011;38907;45.562;8.856;2023-04-25T20:36:16;3.25;;;1.77;;
51020;SDS011;38907;45.562;8.856;2023-04-25T20:41:18;2.45;;;1.40;;
51020;SDS011;38907;45.562;8.856;2023-04-25T20:46:21;1.85;;;1.33;;
51020;SDS011;38907;45.562;8.856;2023-04-25T20:51:25;4.97;;;1.27;;
51020;SDS011;38907;45.562;8.856;2023-04-25T20:56:27;4.32;;;1.40;;
51020;SDS011;38907;45.562;8.856;2023-04-25T21:01:29;3.03;;;1.50;;
51020;SDS011;38907;45.562;8.856;2023-04-25T21:06:32;1.30;;;1.15;;
51020;SDS011;38907;45.562;8.856;2023-04-25T21:16:37;2.80;;;1.30;;
51020;SDS011;38907;45.562;8.856;2023-04-25T21:21:41;1.37;;;1.27;;
51020;SDS011;38907;45.562;8.856;2023-04-25T21:31:44;3.70;;;1.60;;
51020;SDS011;38907;45.562;8.856;2023-04-25T21:36:48;2.13;;;1.60;;
51020;SDS011;38907;45.562;8.856;2023-04-25T21:41:50;2.72;;;2.00;;
51020;SDS011;38907;45.562;8.856;2023-04-25T21:46:52;2.17;;;1.65;;
51020;SDS011;38907;45.562;8.856;2023-04-25T21:51:55;3.42;;;1.92;;
51020;SDS011;38907;45.562;8.856;2023-04-25T22:01:59;3.00;;;2.45;;
51020;SDS011;38907;45.562;8.856;2023-04-25T22:07:02;2.97;;;2.30;;
51020;SDS011;38907;45.562;8.856;2023-04-25T22:17:07;5.45;;;2.90;;
51020;SDS011;38907;45.562;8.856;2023-04-25T22:22:10;3.00;;;2.58;;
51020;SDS011;38907;45.562;8.856;2023-04-25T22:27:12;3.22;;;2.30;;
51020;SDS011;38907;45.562;8.856;2023-04-25T22:32:14;2.15;;;1.95;;
51020;SDS011;38907;45.562;8.856;2023-04-25T22:37:17;4.18;;;3.22;;
51020;SDS011;38907;45.562;8.856;2023-04-25T22:42:20;3.10;;;2.80;;
51020;SDS011;38907;45.562;8.856;2023-04-25T22:47:21;3.35;;;3.00;;
51020;SDS011;38907;45.562;8.856;2023-04-25T22:52:25;3.42;;;2.67;;
51020;SDS011;38907;45.562;8.856;2023-04-25T22:57:27;5.20;;;3.00;;
51020;SDS011;38907;45.562;8.856;2023-04-25T23:02:29;3.25;;;2.75;;
51020;SDS011;38907;45.562;8.856;2023-04-25T23:07:32;5.20;;;3.33;;
51020;SDS011;38907;45.562;8.856;2023-04-25T23:12:34;3.67;;;3.00;;
51020;SDS011;38907;45.562;8.856;2023-04-25T23:17:36;3.28;;;2.97;;
51020;SDS011;38907;45.562;8.856;2023-04-25T23:22:40;8.32;;;3.55;;
51020;SDS011;38907;45.562;8.856;2023-04-25T23:27:41;5.80;;;3.20;;
51020;SDS011;38907;45.562;8.856;2023-04-25T23:32:44;3.80;;;3.03;;
51020;SDS011;38907;45.562;8.856;2023-04-25T23:37:47;3.97;;;3.08;;
51020;SDS011;38907;45.562;8.856;2023-04-25T23:47:51;6.10;;;3.63;;
51020;SDS011;38907;45.562;8.856;2023-04-25T23:52:54;5.05;;;4.35;;
51020;SDS011;38907;45.562;8.856;2023-04-25T23:57:56;4.97;;;3.95;;
